createdAt,value
2022-09-23T00:02:06.541Z,98578.16
2022-09-23T00:04:33.143Z,98578.69
2022-09-23T00:06:59.780Z,98575.19
2022-09-23T00:09:26.407Z,98571.09
2022-09-23T00:11:52.927Z,98567.59
2022-09-23T00:14:19.436Z,98572.56
2022-09-23T00:16:45.986Z,98571.81
2022-09-23T00:19:12.860Z,98574.72
2022-09-23T00:21:39.363Z,98572.88
2022-09-23T00:24:08.036Z,98566.78
2022-09-23T00:26:34.720Z,98569.94
2022-09-23T00:29:01.225Z,98568.13
2022-09-23T00:31:28.169Z,98566.25
2022-09-23T00:34:00.311Z,98569.78
2022-09-23T00:36:28.777Z,98565.34
2022-09-23T00:38:55.740Z,98560.34
2022-09-23T00:41:22.769Z,98563.69
2022-09-23T00:43:52.853Z,98561.63
2022-09-23T00:46:28.181Z,98559.72
2022-09-23T00:49:14.025Z,98560.69
2022-09-23T00:51:46.683Z,98559.53
2022-09-23T00:54:13.459Z,98553.63
2022-09-23T00:56:40.371Z,98553.03
2022-09-23T00:59:11.213Z,98547.69
2022-09-23T01:01:38.303Z,98554.72
2022-09-23T01:04:06.835Z,98555.44
2022-09-23T01:06:33.467Z,98558.47
2022-09-23T01:08:59.986Z,98557.94
2022-09-23T01:11:44.732Z,98552.41
2022-09-23T01:14:23.757Z,98546.72
2022-09-23T01:17:04.518Z,98549.47
2022-09-23T01:20:00.160Z,98546.34
2022-09-23T01:22:44.549Z,98553.50
2022-09-23T01:25:40.767Z,98544.94
2022-09-23T01:28:20.838Z,98545.75
2022-09-23T01:31:09.265Z,98539.50
2022-09-23T01:33:46.132Z,98545.75
2022-09-23T01:36:23.676Z,98547.19
2022-09-23T01:39:05.583Z,98545.69
2022-09-23T01:41:51.689Z,98533.19
2022-09-23T01:44:49.911Z,98527.31
2022-09-23T01:47:20.691Z,98527.88
2022-09-23T01:49:57.631Z,98526.84
2022-09-23T01:52:43.069Z,98524.53
2022-09-23T01:55:20.921Z,98529.13
2022-09-23T01:57:55.654Z,98524.44
2022-09-23T02:00:23.305Z,98526.88
2022-09-23T02:02:53.983Z,98524.22
2022-09-23T02:05:30.483Z,98519.28
2022-09-23T02:08:16.011Z,98518.97
2022-09-23T02:10:47.121Z,98517.03
2022-09-23T02:13:34.268Z,98519.41
2022-09-23T02:16:03.912Z,98520.78
2022-09-23T02:18:58.256Z,98521.47
2022-09-23T02:21:29.356Z,98522.66
2022-09-23T02:24:02.735Z,98514.34
2022-09-23T02:26:35.997Z,98516.56
2022-09-23T02:29:19.023Z,98519.75
2022-09-23T02:32:14.563Z,98504.69
2022-09-23T02:34:41.144Z,98505.97
2022-09-23T02:37:37.174Z,98503.88
2022-09-23T02:40:31.032Z,98505.84
2022-09-23T02:43:12.619Z,98507.75
2022-09-23T02:45:39.341Z,98506.81
2022-09-23T02:48:12.027Z,98504.31
2022-09-23T02:50:39.272Z,98491.44
2022-09-23T02:53:06.527Z,98500.81
2022-09-23T02:55:33.203Z,98501.00
2022-09-23T02:58:01.448Z,98499.41
2022-09-23T03:00:36.196Z,98498.69
2022-09-23T03:03:15.753Z,98496.91
2022-09-23T03:05:52.563Z,98497.63
2022-09-23T03:08:30.099Z,98493.47
2022-09-23T03:11:04.211Z,98494.34
2022-09-23T03:13:55.955Z,98489.53
2022-09-23T03:16:43.570Z,98492.22
2022-09-23T03:19:28.543Z,98491.09
2022-09-23T03:22:01.276Z,98503.50
2022-09-23T03:24:31.247Z,98496.06
2022-09-23T03:27:01.261Z,98490.69
2022-09-23T03:29:29.068Z,98496.03
2022-09-23T03:31:56.800Z,98492.44
2022-09-23T03:34:27.491Z,98499.84
2022-09-23T03:37:08.628Z,98492.50
2022-09-23T03:40:10.017Z,98506.31
2022-09-23T03:42:37.626Z,98498.66
2022-09-23T03:45:08.288Z,98495.94
2022-09-23T03:47:35.426Z,98495.16
2022-09-23T03:50:02.002Z,98489.22
2022-09-23T03:52:28.547Z,98475.38
2022-09-23T03:54:55.118Z,98472.28
2022-09-23T03:57:23.201Z,98481.53
2022-09-23T03:59:50.611Z,98483.06
2022-09-23T04:02:18.458Z,98476.72
2022-09-23T04:04:45.655Z,98474.28
2022-09-23T04:07:13.435Z,98477.59
2022-09-23T04:09:40.328Z,98467.59
2022-09-23T04:12:07.454Z,98472.19
2022-09-23T04:14:34.104Z,98462.66
2022-09-23T04:17:00.660Z,98458.63
2022-09-23T04:19:27.620Z,98461.94
2022-09-23T04:21:54.538Z,98452.75
2022-09-23T04:24:21.725Z,98451.63
2022-09-23T04:26:52.351Z,98449.00
2022-09-23T04:29:19.725Z,98451.56
2022-09-23T04:31:46.365Z,98454.59
2022-09-23T04:34:13.235Z,98451.59
2022-09-23T04:36:39.826Z,98452.88
2022-09-23T04:39:06.733Z,98455.88
2022-09-23T04:41:33.534Z,98447.56
2022-09-23T04:44:00.118Z,98452.91
2022-09-23T04:46:26.773Z,98459.09
2022-09-23T04:48:53.368Z,98452.50
2022-09-23T04:51:21.604Z,98453.50
2022-09-23T04:53:49.686Z,98452.63
2022-09-23T04:56:18.891Z,98456.03
2022-09-23T04:58:46.116Z,98452.19
2022-09-23T05:01:24.210Z,98457.69
2022-09-23T05:03:53.636Z,98463.63
2022-09-23T05:06:21.272Z,98459.88
2022-09-23T05:08:50.209Z,98461.63
2022-09-23T05:11:18.621Z,98451.09
2022-09-23T05:13:49.121Z,98463.63
2022-09-23T05:16:16.287Z,98462.53
2022-09-23T05:18:44.069Z,98471.28
2022-09-23T05:21:16.172Z,98475.34
2022-09-23T05:23:43.223Z,98472.78
2022-09-23T05:26:11.678Z,98470.41
2022-09-23T05:28:39.379Z,98471.72
2022-09-23T05:31:20.240Z,98470.38
2022-09-23T05:33:51.673Z,98471.94
2022-09-23T05:36:18.937Z,98465.22
2022-09-23T05:38:45.549Z,98477.50
2022-09-23T05:41:13.446Z,98473.25
2022-09-23T05:43:40.948Z,98472.38
2022-09-23T05:46:15.917Z,98469.59
2022-09-23T05:48:44.107Z,98480.72
2022-09-23T05:51:12.769Z,98479.53
2022-09-23T05:53:46.847Z,98484.78
2022-09-23T05:56:17.703Z,98484.03
2022-09-23T05:58:44.617Z,98475.88
2022-09-23T06:01:17.873Z,98475.09
2022-09-23T06:03:55.349Z,98476.56
2022-09-23T06:06:39.760Z,98476.97
2022-09-23T06:09:07.854Z,98477.34
2022-09-23T06:11:35.322Z,98477.69
2022-09-23T06:14:02.550Z,98473.66
2022-09-23T06:16:31.747Z,98459.72
2022-09-23T06:19:05.034Z,98468.25
2022-09-23T06:21:33.236Z,98469.41
2022-09-23T06:24:00.585Z,98473.31
2022-09-23T06:26:28.399Z,98466.28
2022-09-23T06:28:55.012Z,98459.41
2022-09-23T06:31:21.539Z,98454.75
2022-09-23T06:33:49.993Z,98453.97
2022-09-23T06:36:30.978Z,98459.81
2022-09-23T06:39:03.760Z,98458.59
2022-09-23T06:41:30.515Z,98462.03
2022-09-23T06:43:58.010Z,98465.00
2022-09-23T06:46:24.915Z,98460.72
2022-09-23T06:48:51.761Z,98461.03
2022-09-23T06:51:21.699Z,98456.47
2022-09-23T06:53:49.098Z,98458.69
2022-09-23T06:56:17.270Z,98463.13
2022-09-23T06:58:43.933Z,98465.25
2022-09-23T07:01:13.033Z,98466.69
2022-09-23T07:03:39.719Z,98467.81
2022-09-23T07:06:06.574Z,98466.78
2022-09-23T07:08:34.299Z,98474.41
2022-09-23T07:11:03.467Z,98466.13
2022-09-23T07:13:30.523Z,98476.72
2022-09-23T07:15:58.888Z,98472.88
2022-09-23T07:18:26.801Z,98469.31
2022-09-23T07:20:53.727Z,98473.25
2022-09-23T07:23:20.720Z,98469.00
2022-09-23T07:25:49.435Z,98467.53
2022-09-23T07:28:16.065Z,98466.88
2022-09-23T07:30:55.699Z,98473.47
2022-09-23T07:33:32.329Z,98470.13
2022-09-23T07:35:59.601Z,98469.53
2022-09-23T07:38:29.939Z,98473.47
2022-09-23T07:41:05.020Z,98470.88
2022-09-23T07:43:32.504Z,98467.97
2022-09-23T07:46:08.265Z,98461.75
2022-09-23T07:48:35.998Z,98471.81
2022-09-23T07:51:20.845Z,98465.19
2022-09-23T07:53:49.114Z,98471.28
2022-09-23T07:56:17.221Z,98472.97
2022-09-23T07:58:43.791Z,98473.34
2022-09-23T08:01:12.008Z,98471.88
2022-09-23T08:03:39.377Z,98467.59
2022-09-23T08:06:11.992Z,98467.75
2022-09-23T08:08:40.446Z,98464.34
2022-09-23T08:11:08.628Z,98471.59
2022-09-23T08:13:35.158Z,98466.28
2022-09-23T08:16:02.109Z,98465.53
2022-09-23T08:18:28.753Z,98470.50
2022-09-23T08:20:55.319Z,98472.91
2022-09-23T08:23:21.981Z,98466.22
2022-09-23T08:25:49.028Z,98468.09
2022-09-23T08:28:18.852Z,98476.34
2022-09-23T08:30:48.593Z,98474.88
2022-09-23T08:33:19.631Z,98463.53
2022-09-23T08:35:49.479Z,98465.69
2022-09-23T08:38:16.078Z,98470.22
2022-09-23T08:40:44.560Z,98466.69
2022-09-23T08:43:29.010Z,98459.91
2022-09-23T08:45:58.354Z,98461.81
2022-09-23T08:48:34.738Z,98463.28
2022-09-23T08:51:06.628Z,98456.22
2022-09-23T08:53:36.000Z,98452.97
2022-09-23T08:56:11.615Z,98461.38
2022-09-23T08:59:02.020Z,98458.59
2022-09-23T09:01:32.315Z,98457.66
2022-09-23T09:04:01.341Z,98460.13
2022-09-23T09:06:52.411Z,98460.72
2022-09-23T09:09:27.222Z,98457.53
2022-09-23T09:12:03.079Z,98456.38
2022-09-23T09:14:48.365Z,98457.84
2022-09-23T09:17:35.561Z,98462.91
2022-09-23T09:20:09.477Z,98445.50
2022-09-23T09:22:44.154Z,98444.38
2022-09-23T09:25:38.732Z,98446.09
2022-09-23T09:28:35.728Z,98441.16
2022-09-23T09:31:26.661Z,98437.16
2022-09-23T09:34:04.525Z,98439.59
2022-09-23T09:36:47.237Z,98445.00
2022-09-23T09:39:14.756Z,98439.53
2022-09-23T09:41:51.974Z,98439.91
2022-09-23T09:44:26.761Z,98434.00
2022-09-23T09:47:15.105Z,98435.66
2022-09-23T09:50:07.892Z,98426.81
2022-09-23T09:52:38.369Z,98426.25
2022-09-23T09:55:13.757Z,98415.63
2022-09-23T09:57:55.292Z,98412.44
2022-09-23T10:00:21.822Z,98410.41
2022-09-23T10:02:53.369Z,98412.13
2022-09-23T10:05:25.931Z,98403.34
2022-09-23T10:07:52.670Z,98399.31
2022-09-23T10:10:39.524Z,98402.28
2022-09-23T10:13:14.794Z,98402.63
2022-09-23T10:15:45.034Z,98399.31
2022-09-23T10:18:19.593Z,98400.94
2022-09-23T10:20:47.234Z,98399.84
2022-09-23T10:23:21.217Z,98400.56
2022-09-23T10:26:00.103Z,98394.59
2022-09-23T10:28:50.496Z,98398.63
2022-09-23T10:31:26.746Z,98401.53
2022-09-23T10:34:00.306Z,98394.81
2022-09-23T10:36:28.493Z,98395.53
2022-09-23T10:39:22.557Z,98394.81
2022-09-23T10:42:16.698Z,98394.94
2022-09-23T10:45:43.297Z,98391.53
2022-09-23T10:48:36.594Z,98379.69
2022-09-23T10:51:14.561Z,98387.22
2022-09-23T10:53:59.204Z,98378.47
2022-09-23T10:56:33.942Z,98374.00
2022-09-23T10:59:06.963Z,98374.59
2022-09-23T11:02:03.285Z,98372.50
2022-09-23T11:04:42.010Z,98372.50
2022-09-23T11:07:44.863Z,98373.56
2022-09-23T11:10:35.201Z,98364.56
2022-09-23T11:13:36.112Z,98366.66
2022-09-23T11:16:25.729Z,98358.50
2022-09-23T11:19:04.858Z,98366.66
2022-09-23T11:21:53.046Z,98355.16
2022-09-23T11:24:50.978Z,98357.41
2022-09-23T11:27:35.792Z,98352.47
2022-09-23T11:30:21.161Z,98343.44
2022-09-23T11:33:06.565Z,98340.78
2022-09-23T11:35:45.828Z,98337.41
2022-09-23T11:38:18.708Z,98328.44
2022-09-23T11:40:46.633Z,98327.81
2022-09-23T11:43:23.493Z,98324.25
2022-09-23T11:46:09.863Z,98329.91
2022-09-23T11:48:44.097Z,98329.56
2022-09-23T11:51:16.530Z,98320.38
2022-09-23T11:53:57.435Z,98326.97
2022-09-23T11:56:35.916Z,98318.94
2022-09-23T11:59:32.267Z,98307.25
2022-09-23T12:02:20.821Z,98314.56
2022-09-23T12:05:08.960Z,98314.66
2022-09-23T12:07:47.943Z,98314.31
2022-09-23T12:10:15.675Z,98316.75
2022-09-23T12:13:05.001Z,98308.50
2022-09-23T12:16:02.749Z,98314.41
2022-09-23T12:19:13.993Z,98314.25
2022-09-23T12:21:53.259Z,98311.66
2022-09-23T12:24:38.680Z,98302.38
2022-09-23T12:27:11.051Z,98301.19
2022-09-23T12:29:38.602Z,98306.22
2022-09-23T12:32:10.147Z,98301.72
2022-09-23T12:34:49.995Z,98300.56
2022-09-23T12:37:29.149Z,98297.25
2022-09-23T12:40:00.046Z,98297.25
2022-09-23T12:42:30.962Z,98292.75
2022-09-23T12:45:38.616Z,98296.59
2022-09-23T12:48:26.610Z,98287.53
2022-09-23T12:51:16.388Z,98292.44
2022-09-23T12:53:52.491Z,98279.41
2022-09-23T12:56:24.791Z,98287.00
2022-09-23T12:58:51.220Z,98280.69
2022-09-23T13:01:20.165Z,98277.38
2022-09-23T13:04:08.605Z,98272.28
2022-09-23T13:06:40.880Z,98270.97
2022-09-23T13:09:11.108Z,98270.72
2022-09-23T13:11:40.417Z,98259.16
2022-09-23T13:14:07.864Z,98262.31
2022-09-23T13:16:38.130Z,98261.88
2022-09-23T13:19:06.443Z,98253.09
2022-09-23T13:21:45.871Z,98248.81
2022-09-23T13:24:12.709Z,98245.91
2022-09-23T13:26:43.689Z,98242.41
2022-09-23T13:29:15.829Z,98239.84
2022-09-23T13:31:42.720Z,98249.88
2022-09-23T13:34:13.189Z,98244.50
2022-09-23T13:36:44.665Z,98248.72
2022-09-23T13:39:24.602Z,98247.47
2022-09-23T13:41:53.662Z,98250.19
2022-09-23T13:44:20.901Z,98241.72
2022-09-23T13:46:50.503Z,98245.75
2022-09-23T13:49:25.728Z,98243.91
2022-09-23T13:51:54.136Z,98240.13
2022-09-23T13:54:33.416Z,98250.22
2022-09-23T13:57:00.347Z,98240.72
2022-09-23T13:59:41.946Z,98233.03
2022-09-23T14:02:13.933Z,98229.00
2022-09-23T14:04:40.561Z,98231.13
2022-09-23T14:07:08.296Z,98225.13
2022-09-23T14:09:37.971Z,98223.56
2022-09-23T14:12:05.734Z,98223.94
2022-09-23T14:14:35.197Z,98223.84
2022-09-23T14:17:02.558Z,98219.56
2022-09-23T14:19:29.246Z,98223.91
2022-09-23T14:21:56.617Z,98228.88
2022-09-23T14:24:25.518Z,98222.00
2022-09-23T14:26:53.807Z,98210.22
2022-09-23T14:29:41.274Z,98209.88
2022-09-23T14:32:17.942Z,98212.34
2022-09-23T14:34:48.387Z,98209.69
2022-09-23T14:37:44.020Z,98207.78
2022-09-23T14:40:36.098Z,98198.59
2022-09-23T14:43:05.607Z,98197.50
2022-09-23T14:45:41.759Z,98190.91
2022-09-23T14:48:21.381Z,98196.91
2022-09-23T14:50:50.449Z,98190.63
2022-09-23T14:53:16.936Z,98188.94
2022-09-23T14:55:44.088Z,98188.66
2022-09-23T14:58:15.936Z,98179.28
2022-09-23T15:00:56.407Z,98174.72
2022-09-23T15:03:23.158Z,98185.56
2022-09-23T15:05:51.966Z,98177.47
2022-09-23T15:08:23.687Z,98174.72
2022-09-23T15:10:50.392Z,98171.53
2022-09-23T15:13:19.383Z,98169.28
2022-09-23T15:15:46.202Z,98170.69
2022-09-23T15:18:18.715Z,98176.16
2022-09-23T15:20:53.817Z,98172.97
2022-09-23T15:23:39.116Z,98167.53
2022-09-23T15:26:08.752Z,98171.94
2022-09-23T15:28:35.264Z,98161.75
2022-09-23T15:31:03.032Z,98172.94
2022-09-23T15:33:29.900Z,98173.81
2022-09-23T15:35:56.960Z,98168.56
2022-09-23T15:38:23.836Z,98175.81
2022-09-23T15:40:50.592Z,98182.72
2022-09-23T15:43:21.187Z,98168.34
2022-09-23T15:46:06.063Z,98167.00
2022-09-23T15:48:42.263Z,98182.66
2022-09-23T15:51:09.823Z,98175.16
2022-09-23T15:53:38.141Z,98180.81
2022-09-23T15:56:06.234Z,98180.19
2022-09-23T15:58:33.120Z,98183.94
2022-09-23T16:01:00.909Z,98183.09
2022-09-23T16:03:30.472Z,98179.84
2022-09-23T16:06:02.898Z,98179.31
2022-09-23T16:08:30.070Z,98171.41
2022-09-23T16:10:56.678Z,98166.41
2022-09-23T16:13:23.284Z,98167.97
2022-09-23T16:15:49.997Z,98169.00
2022-09-23T16:18:16.639Z,98167.31
2022-09-23T16:20:44.663Z,98168.69
2022-09-23T16:23:35.866Z,98167.94
2022-09-23T16:26:17.135Z,98165.06
2022-09-23T16:28:44.792Z,98174.63
2022-09-23T16:31:11.899Z,98160.19
2022-09-23T16:33:38.706Z,98162.38
2022-09-23T16:36:07.882Z,98162.16
2022-09-23T16:38:34.482Z,98167.66
2022-09-23T16:41:01.391Z,98167.56
2022-09-23T16:43:32.694Z,98164.31
2022-09-23T16:45:59.427Z,98164.53
2022-09-23T16:48:26.054Z,98171.63
2022-09-23T16:50:53.971Z,98170.72
2022-09-23T16:53:20.593Z,98170.63
2022-09-23T16:55:47.279Z,98177.03
2022-09-23T16:58:13.825Z,98176.44
2022-09-23T17:01:18.616Z,98181.44
2022-09-23T17:03:47.172Z,98176.47
2022-09-23T17:06:15.017Z,98177.31
2022-09-23T17:08:42.702Z,98175.34
2022-09-23T17:11:16.158Z,98165.47
2022-09-23T17:13:43.934Z,98162.53
2022-09-23T17:16:11.838Z,98167.91
2022-09-23T17:18:41.334Z,98175.00
2022-09-23T17:21:08.006Z,98180.06
2022-09-23T17:23:35.905Z,98179.22
2022-09-23T17:26:02.940Z,98176.44
2022-09-23T17:28:29.553Z,98172.28
2022-09-23T17:30:58.134Z,98173.00
2022-09-23T17:33:29.349Z,98168.16
2022-09-23T17:35:56.830Z,98175.94
2022-09-23T17:38:28.618Z,98178.69
2022-09-23T17:40:57.539Z,98175.66
2022-09-23T17:43:25.044Z,98175.72
2022-09-23T17:45:56.725Z,98165.75
2022-09-23T17:48:25.379Z,98174.00
2022-09-23T17:50:59.130Z,98170.38
2022-09-23T17:53:26.183Z,98173.69
2022-09-23T17:56:00.499Z,98164.78
2022-09-23T17:58:28.721Z,98164.50
2022-09-23T18:00:56.327Z,98165.09
2022-09-23T18:03:24.401Z,98170.50
2022-09-23T18:05:50.993Z,98169.25
2022-09-23T18:08:17.967Z,98165.94
2022-09-23T18:10:44.683Z,98173.66
2022-09-23T18:13:11.211Z,98166.94
2022-09-23T18:15:39.021Z,98168.66
2022-09-23T18:18:05.636Z,98153.13
2022-09-23T18:20:32.722Z,98154.19
2022-09-23T18:22:59.489Z,98155.53
2022-09-23T18:25:39.072Z,98152.22
2022-09-23T18:28:06.455Z,98159.91
2022-09-23T18:30:33.938Z,98160.13
2022-09-23T18:33:01.553Z,98158.00
2022-09-23T18:35:31.485Z,98157.16
2022-09-23T18:37:58.096Z,98161.75
2022-09-23T18:40:24.692Z,98160.47
2022-09-23T18:42:51.528Z,98165.34
2022-09-23T18:45:18.221Z,98160.97
2022-09-23T18:48:07.674Z,98160.97
2022-09-23T18:50:40.249Z,98167.63
2022-09-23T18:53:07.881Z,98156.22
2022-09-23T18:55:35.629Z,98156.22
2022-09-23T18:58:02.190Z,98148.03
2022-09-23T19:00:29.146Z,98149.81
2022-09-23T19:02:57.757Z,98145.72
2022-09-23T19:05:24.357Z,98144.50
2022-09-23T19:07:51.331Z,98142.69
2022-09-23T19:10:19.152Z,98151.34
2022-09-23T19:12:46.605Z,98145.03
2022-09-23T19:15:14.191Z,98147.69
2022-09-23T19:17:40.857Z,98144.75
2022-09-23T19:20:08.099Z,98149.03
2022-09-23T19:22:34.805Z,98150.09
2022-09-23T19:25:01.469Z,98155.41
2022-09-23T19:27:28.684Z,98157.50
2022-09-23T19:29:55.382Z,98152.31
2022-09-23T19:32:27.005Z,98161.28
2022-09-23T19:34:53.709Z,98158.09
2022-09-23T19:37:20.272Z,98151.78
2022-09-23T19:39:47.622Z,98152.25
2022-09-23T19:42:14.363Z,98157.69
2022-09-23T19:44:41.186Z,98157.75
2022-09-23T19:47:10.216Z,98144.13
2022-09-23T19:49:36.824Z,98149.56
2022-09-23T19:52:03.367Z,98144.50
2022-09-23T19:54:29.870Z,98148.00
2022-09-23T19:56:56.474Z,98144.53
2022-09-23T19:59:23.135Z,98148.84
2022-09-23T20:01:49.759Z,98139.59
2022-09-23T20:04:17.080Z,98137.81
2022-09-23T20:06:45.850Z,98135.75
2022-09-23T20:09:12.507Z,98132.63
2022-09-23T20:11:40.581Z,98132.03
2022-09-23T20:14:07.251Z,98124.09
2022-09-23T20:16:35.783Z,98124.56
2022-09-23T20:19:04.388Z,98120.31
2022-09-23T20:21:31.431Z,98123.88
2022-09-23T20:23:58.316Z,98117.25
2022-09-23T20:26:43.580Z,98121.66
2022-09-23T20:29:11.064Z,98125.09
2022-09-23T20:31:40.331Z,98117.38
2022-09-23T20:34:08.288Z,98116.38
2022-09-23T20:36:36.031Z,98120.31
2022-09-23T20:39:06.223Z,98113.13
2022-09-23T20:41:37.617Z,98112.44
2022-09-23T20:44:07.350Z,98117.13
2022-09-23T20:46:34.371Z,98110.38
2022-09-23T20:49:01.987Z,98123.63
2022-09-23T20:51:28.740Z,98113.91
2022-09-23T20:53:55.804Z,98115.09
2022-09-23T20:56:22.677Z,98112.19
2022-09-23T20:58:50.685Z,98105.13
2022-09-23T21:01:17.774Z,98106.16
2022-09-23T21:03:46.216Z,98108.41
2022-09-23T21:06:14.483Z,98108.28
2022-09-23T21:08:42.195Z,98105.75
2022-09-23T21:11:14.918Z,98105.75
2022-09-23T21:13:47.060Z,98104.00
2022-09-23T21:16:15.893Z,98109.88
2022-09-23T21:18:43.460Z,98107.38
2022-09-23T21:21:10.955Z,98109.31
2022-09-23T21:23:39.543Z,98101.09
2022-09-23T21:26:08.746Z,98102.41
2022-09-23T21:28:42.790Z,98098.84
2022-09-23T21:31:27.038Z,98094.88
2022-09-23T21:34:12.599Z,98101.09
2022-09-23T21:36:42.690Z,98095.50
2022-09-23T21:39:10.511Z,98101.38
2022-09-23T21:41:37.829Z,98102.81
2022-09-23T21:44:05.260Z,98104.88
2022-09-23T21:46:33.898Z,98108.13
2022-09-23T21:49:02.168Z,98113.88
2022-09-23T21:51:40.459Z,98113.31
2022-09-23T21:54:11.895Z,98115.97
2022-09-23T21:56:38.479Z,98112.56
2022-09-23T21:59:05.714Z,98115.84
2022-09-23T22:01:35.015Z,98112.56
2022-09-23T22:04:08.432Z,98108.59
2022-09-23T22:06:38.026Z,98112.00
2022-09-23T22:09:08.882Z,98110.66
2022-09-23T22:11:55.467Z,98108.34
2022-09-23T22:14:26.385Z,98113.50
2022-09-23T22:16:57.262Z,98111.75
2022-09-23T22:19:32.801Z,98115.56
2022-09-23T22:21:59.395Z,98113.25
2022-09-23T22:24:25.997Z,98108.97
2022-09-23T22:26:52.676Z,98105.44
2022-09-23T22:29:38.202Z,98097.53
2022-09-23T22:32:24.591Z,98100.16
2022-09-23T22:34:52.721Z,98091.19
2022-09-23T22:37:21.740Z,98102.06
2022-09-23T22:39:48.403Z,98097.25
2022-09-23T22:42:14.979Z,98100.03
2022-09-23T22:44:41.580Z,98105.34
2022-09-23T22:47:09.784Z,98110.34
2022-09-23T22:49:36.647Z,98113.97
2022-09-23T22:52:06.949Z,98115.44
2022-09-23T22:54:34.596Z,98109.00
2022-09-23T22:57:03.965Z,98106.06
2022-09-23T22:59:30.689Z,98107.09
2022-09-23T23:01:59.749Z,98100.34
2022-09-23T23:04:26.992Z,98100.94
2022-09-23T23:06:53.566Z,98099.44
2022-09-23T23:09:20.162Z,98091.81
2022-09-23T23:11:47.167Z,98096.34
2022-09-23T23:14:16.447Z,98096.50
2022-09-23T23:16:43.962Z,98092.66
2022-09-23T23:19:13.401Z,98086.94
2022-09-23T23:21:43.456Z,98081.34
2022-09-23T23:24:23.986Z,98076.81
2022-09-23T23:26:51.514Z,98082.53
2022-09-23T23:29:19.943Z,98072.00
2022-09-23T23:31:47.272Z,98074.31
2022-09-23T23:34:16.673Z,98069.22
2022-09-23T23:36:44.291Z,98067.13
2022-09-23T23:39:11.400Z,98063.91
2022-09-23T23:41:39.450Z,98068.03
2022-09-23T23:44:07.770Z,98073.28
2022-09-23T23:46:34.618Z,98071.81
2022-09-23T23:49:01.295Z,98067.97
2022-09-23T23:51:27.947Z,98065.94
2022-09-23T23:53:55.364Z,98061.41
2022-09-23T23:56:23.986Z,98066.56
2022-09-23T23:58:58.267Z,98059.66
